Time;durP1;ratioP1;P1;durP2;ratioP2;P2;SDS_P1;SDS_P2;PMS_P1;PMS_P2;Temp;Humidity;BMP_temperature;BMP_pressure;BME280_temperature;BME280_humidity;BME280_pressure;Samples;Min_cycle;Max_cycle;Signal;HPM_P1;HPM_P2
2023/09/16 00:00:16;;;;;;;13.82;4.85;;;13.20;97.10;;;;;;5007248;28;20080;-76
2023/09/16 00:02:43;;;;;;;15.80;5.03;;;13.20;97.00;;;;;;5022467;28;20088;-77
2023/09/16 00:05:12;;;;;;;6.50;3.72;;;13.20;96.90;;;;;;5024044;28;20136;-76
2023/09/16 00:07:39;;;;;;;7.45;4.32;;;13.10;97.00;;;;;;5008175;28;20115;-76
2023/09/16 00:10:06;;;;;;;6.45;4.03;;;13.10;96.90;;;;;;5023469;28;20049;-76
2023/09/16 00:12:33;;;;;;;9.32;4.18;;;13.10;96.90;;;;;;5020589;28;20085;-77
2023/09/16 00:15:00;;;;;;;6.25;3.75;;;13.10;96.80;;;;;;5023113;28;20056;-76
2023/09/16 00:17:28;;;;;;;8.23;4.30;;;13.10;96.90;;;;;;5021775;28;20541;-76
2023/09/16 00:19:55;;;;;;;7.93;4.15;;;13.00;96.70;;;;;;5025375;28;20057;-77
2023/09/16 00:22:22;;;;;;;8.27;4.13;;;13.00;97.10;;;;;;5004763;28;20387;-76
2023/09/16 00:24:49;;;;;;;6.43;4.40;;;13.00;97.40;;;;;;5023273;28;20060;-77
2023/09/16 00:27:17;;;;;;;7.35;4.45;;;13.00;97.70;;;;;;5022774;28;20143;-76
2023/09/16 00:29:44;;;;;;;8.32;3.65;;;13.00;97.80;;;;;;5024927;28;20054;-77
2023/09/16 00:35:56;;;;;;;7.20;4.15;;;12.90;97.60;;;;;;5022247;28;20038;-76
2023/09/16 00:38:23;;;;;;;9.52;4.05;;;12.90;97.20;;;;;;5019735;28;20049;-76
2023/09/16 00:40:51;;;;;;;7.15;4.13;;;12.90;97.10;;;;;;5029084;28;20151;-76
2023/09/16 00:43:18;;;;;;;10.00;4.35;;;12.90;96.90;;;;;;5005435;28;20125;-76
2023/09/16 00:45:45;;;;;;;9.05;4.57;;;12.90;97.00;;;;;;5006373;28;20124;-76
2023/09/16 00:48:14;;;;;;;6.35;3.95;;;12.80;96.90;;;;;;5007919;28;20047;-76
2023/09/16 00:50:42;;;;;;;11.23;3.88;;;12.80;96.50;;;;;;5024540;28;20072;-76
2023/09/16 00:53:11;;;;;;;9.02;4.10;;;12.80;96.70;;;;;;5026644;28;20045;-76
2023/09/16 00:55:38;;;;;;;9.55;5.43;;;12.80;96.60;;;;;;5025753;28;20093;-76
2023/09/16 00:58:09;;;;;;;9.50;3.72;;;12.80;96.50;;;;;;5007107;28;20050;-76
2023/09/16 01:00:36;;;;;;;8.40;3.33;;;12.80;96.10;;;;;;5005964;28;20049;-76
2023/09/16 01:03:04;;;;;;;14.60;4.07;;;12.80;95.90;;;;;;5024523;28;20112;-76
2023/09/16 01:05:33;;;;;;;9.93;4.15;;;12.80;95.70;;;;;;5007934;28;20049;-76
2023/09/16 01:08:00;;;;;;;10.90;3.67;;;12.80;95.60;;;;;;5010473;28;20057;-76
2023/09/16 01:10:27;;;;;;;7.72;3.90;;;12.90;95.30;;;;;;5023176;28;20045;-76
2023/09/16 01:12:55;;;;;;;8.52;3.63;;;12.90;95.50;;;;;;5025247;28;20057;-76
2023/09/16 01:15:27;;;;;;;7.95;3.90;;;12.90;95.20;;;;;;5026992;28;20595;-76
2023/09/16 01:18:00;;;;;;;9.93;3.80;;;12.90;95.10;;;;;;5007568;28;20053;-76
2023/09/16 01:20:28;;;;;;;7.22;3.17;;;12.90;95.50;;;;;;5011217;28;20128;-76
2023/09/16 01:22:55;;;;;;;8.20;3.35;;;12.80;96.00;;;;;;5007163;28;20045;-76
2023/09/16 01:25:29;;;;;;;10.55;3.88;;;12.80;95.60;;;;;;5031211;28;20068;-76
2023/09/16 01:27:56;;;;;;;5.30;3.40;;;12.70;95.70;;;;;;5030536;28;20053;-76
2023/09/16 01:30:26;;;;;;;7.57;3.13;;;12.70;95.90;;;;;;5023203;28;20060;-76
2023/09/16 01:33:16;;;;;;;6.57;3.38;;;12.60;95.90;;;;;;5023613;28;20049;-76
2023/09/16 01:35:47;;;;;;;5.45;3.42;;;12.60;96.20;;;;;;5008918;28;20512;-76
2023/09/16 01:38:16;;;;;;;5.80;3.53;;;12.50;96.50;;;;;;5023908;28;20081;-76
2023/09/16 01:40:45;;;;;;;5.10;3.67;;;12.50;96.20;;;;;;5006170;28;20160;-76
2023/09/16 01:43:12;;;;;;;9.20;3.80;;;12.50;96.30;;;;;;5025274;28;20379;-76
2023/09/16 01:45:43;;;;;;;9.80;3.40;;;12.40;96.30;;;;;;5033086;28;20049;-76
2023/09/16 01:48:11;;;;;;;8.43;4.30;;;12.40;96.30;;;;;;5007829;28;20386;-76
2023/09/16 01:50:38;;;;;;;5.50;3.25;;;12.40;96.60;;;;;;5007655;28;20156;-76
2023/09/16 01:53:07;;;;;;;7.90;3.72;;;12.40;96.60;;;;;;5026599;28;20563;-75
2023/09/16 01:55:34;;;;;;;5.97;4.03;;;12.30;96.10;;;;;;5007490;28;20056;-76
2023/09/16 01:58:01;;;;;;;6.60;3.67;;;12.30;96.20;;;;;;5023478;28;20061;-76
2023/09/16 02:00:28;;;;;;;8.23;3.80;;;12.30;96.40;;;;;;5005106;28;22161;-76
2023/09/16 02:02:55;;;;;;;6.93;3.78;;;12.30;96.10;;;;;;5017541;28;20073;-76
2023/09/16 02:05:22;;;;;;;7.63;4.22;;;12.30;96.20;;;;;;5022466;28;20084;-76
2023/09/16 02:07:49;;;;;;;10.10;3.97;;;12.30;96.30;;;;;;5018994;28;20115;-76
2023/09/16 02:10:16;;;;;;;9.63;4.07;;;12.30;96.20;;;;;;5021732;28;20053;-76
2023/09/16 02:12:43;;;;;;;9.48;4.05;;;12.20;96.00;;;;;;5025620;28;20072;-76
2023/09/16 02:15:10;;;;;;;10.10;3.60;;;12.20;96.20;;;;;;5002535;28;20505;-76
2023/09/16 02:17:39;;;;;;;6.68;4.00;;;12.20;96.70;;;;;;5007601;28;20142;-76
2023/09/16 02:20:12;;;;;;;9.85;4.57;;;12.10;96.60;;;;;;5026256;28;20829;-76
2023/09/16 02:22:44;;;;;;;8.38;3.90;;;12.10;96.60;;;;;;5023864;28;20056;-76
2023/09/16 02:25:11;;;;;;;7.45;3.80;;;12.10;96.90;;;;;;5021372;28;20069;-76
2023/09/16 02:27:38;;;;;;;9.45;3.88;;;12.00;96.50;;;;;;5022408;28;20123;-76
2023/09/16 02:30:06;;;;;;;8.23;4.18;;;12.00;96.40;;;;;;5006333;28;20941;-76
2023/09/16 02:32:33;;;;;;;5.20;3.67;;;12.00;96.60;;;;;;5005934;28;20069;-76
2023/09/16 02:35:00;;;;;;;8.05;4.18;;;12.00;96.30;;;;;;5020357;28;20050;-76
2023/09/16 02:37:27;;;;;;;7.40;4.10;;;11.90;96.30;;;;;;5022731;28;20045;-76
2023/09/16 02:39:54;;;;;;;16.38;4.05;;;11.90;96.30;;;;;;5006124;28;20097;-76
2023/09/16 02:42:21;;;;;;;7.55;3.63;;;11.90;96.40;;;;;;5007324;28;20128;-76
2023/09/16 02:44:47;;;;;;;8.68;3.30;;;11.90;96.30;;;;;;5020834;28;20045;-76
2023/09/16 02:47:15;;;;;;;8.65;3.85;;;11.90;96.40;;;;;;5022225;28;20135;-76
2023/09/16 02:49:42;;;;;;;9.05;3.60;;;11.90;96.60;;;;;;5023324;28;20128;-76
2023/09/16 02:52:09;;;;;;;9.88;3.63;;;11.80;97.30;;;;;;4998725;28;20049;-76
2023/09/16 02:54:36;;;;;;;10.30;3.75;;;11.80;96.90;;;;;;5004597;28;20060;-76
2023/09/16 02:57:03;;;;;;;8.15;3.72;;;11.80;96.70;;;;;;5018654;28;20053;-76
2023/09/16 02:59:30;;;;;;;8.75;4.18;;;11.70;96.60;;;;;;5022759;28;20154;-76
2023/09/16 03:01:57;;;;;;;6.00;3.38;;;11.70;96.60;;;;;;5016637;28;20041;-75
2023/09/16 03:04:24;;;;;;;5.05;3.40;;;11.80;96.70;;;;;;5023719;28;20038;-76
2023/09/16 03:06:51;;;;;;;11.70;3.38;;;11.80;96.80;;;;;;5026685;28;20057;-76
2023/09/16 03:09:19;;;;;;;7.60;3.85;;;11.70;96.50;;;;;;5023913;28;20047;-76
2023/09/16 03:11:46;;;;;;;9.13;3.60;;;11.70;96.70;;;;;;5008908;28;20049;-76
2023/09/16 03:14:13;;;;;;;5.97;3.10;;;11.70;96.80;;;;;;5021510;28;20045;-76
2023/09/16 03:16:40;;;;;;;5.68;3.22;;;11.70;97.00;;;;;;5008481;28;20049;-76
2023/09/16 03:19:08;;;;;;;6.95;3.65;;;11.60;97.00;;;;;;5016396;28;20131;-76
2023/09/16 03:21:35;;;;;;;5.63;3.50;;;11.60;97.00;;;;;;5002698;28;20049;-76
2023/09/16 03:24:02;;;;;;;9.57;3.50;;;11.60;97.30;;;;;;5003766;28;20053;-76
2023/09/16 03:26:29;;;;;;;9.05;3.58;;;11.60;97.10;;;;;;5024961;28;20060;-76
2023/09/16 03:28:56;;;;;;;7.97;4.20;;;11.60;97.10;;;;;;5003016;28;20098;-76
2023/09/16 03:31:22;;;;;;;8.25;3.60;;;11.50;97.10;;;;;;4999981;28;20057;-76
2023/09/16 03:33:49;;;;;;;12.18;4.07;;;11.50;97.20;;;;;;5004872;28;20064;-75
2023/09/16 03:36:16;;;;;;;8.25;3.65;;;11.50;97.40;;;;;;5007881;28;20053;-76
2023/09/16 03:38:49;;;;;;;10.38;4.03;;;11.40;97.40;;;;;;5021709;28;20049;-76
2023/09/16 03:41:17;;;;;;;6.75;3.22;;;11.40;97.40;;;;;;5000984;28;20084;-76
2023/09/16 03:43:44;;;;;;;7.72;3.70;;;11.40;97.50;;;;;;5021645;28;20049;-76
2023/09/16 03:46:15;;;;;;;14.15;4.00;;;11.30;97.40;;;;;;5017899;28;20115;-76
2023/09/16 03:48:42;;;;;;;6.90;3.75;;;11.30;97.50;;;;;;5002139;28;20056;-76
2023/09/16 03:51:09;;;;;;;6.13;3.42;;;11.30;97.60;;;;;;5023251;28;20704;-76
2023/09/16 03:53:36;;;;;;;9.05;3.40;;;11.20;97.50;;;;;;5021231;28;20873;-76
2023/09/16 03:56:08;;;;;;;10.10;3.55;;;11.20;97.80;;;;;;5021709;28;20049;-76
2023/09/16 03:58:36;;;;;;;6.32;3.63;;;11.20;97.90;;;;;;5021131;28;20128;-76
2023/09/16 04:01:04;;;;;;;12.68;3.72;;;11.20;97.90;;;;;;5002773;28;20049;-76
2023/09/16 04:03:31;;;;;;;6.38;3.53;;;11.10;98.00;;;;;;5020628;28;20776;-76
2023/09/16 04:05:58;;;;;;;8.07;3.38;;;11.10;98.00;;;;;;5027396;28;20045;-76
2023/09/16 04:08:26;;;;;;;5.88;3.78;;;11.10;98.10;;;;;;5025758;28;20056;-76
2023/09/16 04:11:03;;;;;;;8.90;3.97;;;11.10;98.10;;;;;;5008811;28;20057;-76
2023/09/16 04:13:30;;;;;;;6.78;3.50;;;11.00;98.40;;;;;;5005161;28;20050;-76
2023/09/16 04:15:57;;;;;;;10.80;3.78;;;11.10;98.40;;;;;;5030163;28;20091;-76
2023/09/16 04:18:24;;;;;;;10.98;3.78;;;11.10;98.50;;;;;;5027197;28;20052;-76
2023/09/16 04:20:55;;;;;;;5.10;3.38;;;11.10;98.20;;;;;;5019140;28;20047;-76
2023/09/16 04:23:22;;;;;;;9.90;4.05;;;11.20;97.80;;;;;;5024038;28;20073;-76
2023/09/16 04:26:00;;;;;;;7.85;3.97;;;11.30;97.80;;;;;;5005804;28;20096;-75
2023/09/16 04:28:28;;;;;;;9.27;4.53;;;11.30;97.70;;;;;;5009930;28;20051;-76
2023/09/16 04:30:56;;;;;;;7.75;3.35;;;11.30;97.50;;;;;;5026039;28;20056;-76
2023/09/16 04:33:23;;;;;;;14.27;3.90;;;11.30;97.30;;;;;;5025761;28;20115;-76
2023/09/16 04:35:51;;;;;;;9.60;3.63;;;11.30;97.50;;;;;;5022169;28;20089;-76
2023/09/16 04:38:19;;;;;;;10.07;4.20;;;11.30;97.50;;;;;;5023973;28;20053;-76
2023/09/16 04:40:49;;;;;;;6.25;3.50;;;11.30;97.40;;;;;;5019237;28;20041;-76
2023/09/16 04:43:16;;;;;;;6.78;3.10;;;11.30;97.60;;;;;;5006683;28;20128;-76
2023/09/16 04:45:48;;;;;;;6.93;3.40;;;11.40;97.50;;;;;;4997858;28;20046;-76
2023/09/16 04:48:17;;;;;;;7.05;3.33;;;11.30;97.70;;;;;;5004800;28;20037;-76
2023/09/16 04:50:45;;;;;;;6.10;3.10;;;11.30;97.80;;;;;;5020239;28;20541;-77
2023/09/16 04:53:13;;;;;;;11.52;3.45;;;11.30;97.70;;;;;;5021685;28;20052;-75
2023/09/16 04:55:43;;;;;;;6.57;3.67;;;11.20;97.80;;;;;;5020018;28;20803;-76
2023/09/16 04:58:10;;;;;;;8.63;3.15;;;11.20;98.10;;;;;;5005683;28;21032;-76
2023/09/16 05:00:38;;;;;;;8.93;4.45;;;11.20;98.20;;;;;;5012285;28;20135;-76
2023/09/16 05:03:05;;;;;;;9.85;3.60;;;11.20;98.30;;;;;;5006701;28;20056;-76
2023/09/16 05:05:34;;;;;;;11.63;4.15;;;11.10;98.20;;;;;;5008688;28;20045;-76
2023/09/16 05:08:01;;;;;;;6.13;3.10;;;11.10;98.20;;;;;;5022638;28;20049;-75
2023/09/16 05:10:28;;;;;;;7.82;3.47;;;11.10;98.50;;;;;;5020103;28;20556;-75
2023/09/16 05:12:55;;;;;;;9.73;3.78;;;11.10;98.10;;;;;;5025806;28;20152;-77
2023/09/16 05:15:26;;;;;;;7.55;2.80;;;11.10;98.00;;;;;;5009139;28;20053;-76
2023/09/16 05:17:53;;;;;;;8.63;3.58;;;11.10;98.40;;;;;;5023297;28;20056;-76
2023/09/16 05:20:20;;;;;;;9.52;3.67;;;11.10;98.30;;;;;;5023926;28;20195;-76
2023/09/16 05:22:47;;;;;;;7.53;3.40;;;11.10;98.80;;;;;;5017040;28;20053;-76
2023/09/16 05:25:14;;;;;;;9.98;3.58;;;11.00;98.70;;;;;;5023446;28;20084;-76
2023/09/16 05:27:41;;;;;;;7.43;4.13;;;11.00;98.60;;;;;;5017588;28;20387;-76
2023/09/16 05:30:09;;;;;;;10.32;3.95;;;11.00;99.10;;;;;;5004193;28;20152;-76
2023/09/16 05:32:36;;;;;;;11.15;4.18;;;11.00;99.20;;;;;;5022249;28;20050;-77
2023/09/16 05:35:03;;;;;;;10.18;3.78;;;11.00;99.10;;;;;;5007966;28;20128;-77
2023/09/16 05:37:30;;;;;;;12.20;3.25;;;11.00;98.90;;;;;;5008967;28;20084;-77
2023/09/16 05:39:57;;;;;;;8.32;3.83;;;11.10;99.10;;;;;;5023834;28;20757;-77
2023/09/16 05:42:24;;;;;;;8.93;3.30;;;11.10;99.30;;;;;;5029671;28;20156;-77
2023/09/16 05:44:51;;;;;;;8.95;3.10;;;11.10;99.20;;;;;;5023346;28;20497;-77
2023/09/16 05:47:18;;;;;;;6.63;3.50;;;11.10;99.20;;;;;;5016160;28;20049;-76
2023/09/16 05:49:47;;;;;;;7.68;3.67;;;11.20;99.20;;;;;;5007677;28;20050;-76
2023/09/16 05:52:14;;;;;;;6.70;3.55;;;11.20;99.40;;;;;;5003385;28;20107;-76
2023/09/16 05:54:41;;;;;;;15.80;5.45;;;11.20;99.30;;;;;;5006421;28;20050;-76
2023/09/16 05:57:08;;;;;;;5.35;3.17;;;11.30;99.50;;;;;;5021461;28;20134;-76
2023/09/16 05:59:34;;;;;;;11.05;3.58;;;11.30;99.10;;;;;;5005573;28;20055;-76
2023/09/16 06:02:01;;;;;;;8.35;3.40;;;11.40;99.20;;;;;;5022774;28;20552;-76
2023/09/16 06:04:30;;;;;;;8.45;3.15;;;11.40;98.80;;;;;;5020126;28;20760;-76
2023/09/16 06:06:57;;;;;;;5.40;3.47;;;11.50;98.90;;;;;;5015717;28;20061;-76
2023/09/16 06:09:24;;;;;;;9.93;3.33;;;11.60;98.80;;;;;;5022983;28;20500;-77
2023/09/16 06:11:51;;;;;;;7.10;3.58;;;11.60;99.10;;;;;;5006194;28;20059;-76
2023/09/16 06:14:18;;;;;;;8.13;3.35;;;11.70;98.60;;;;;;5000087;28;20115;-77
2023/09/16 06:16:44;;;;;;;8.65;3.35;;;11.90;99.00;;;;;;5020792;28;20183;-77
2023/09/16 06:19:12;;;;;;;13.50;3.55;;;12.10;98.70;;;;;;5003640;28;20046;-76
2023/09/16 06:21:38;;;;;;;6.68;2.97;;;12.30;99.00;;;;;;5005229;28;20041;-76
2023/09/16 06:24:07;;;;;;;8.63;3.47;;;12.60;96.80;;;;;;5005662;28;20132;-76
2023/09/16 06:26:33;;;;;;;9.93;2.95;;;12.80;95.20;;;;;;5019208;28;20053;-76
2023/09/16 06:29:00;;;;;;;6.93;3.20;;;13.10;94.80;;;;;;5022715;28;20107;-76
2023/09/16 06:31:27;;;;;;;5.38;2.72;;;13.10;93.30;;;;;;5001859;28;21272;-77
2023/09/16 06:33:55;;;;;;;5.50;2.55;;;13.20;92.10;;;;;;4999396;28;20049;-76
2023/09/16 06:36:23;;;;;;;3.78;2.30;;;13.30;91.10;;;;;;5021444;28;20140;-77
2023/09/16 06:38:50;;;;;;;6.60;2.85;;;13.30;93.00;;;;;;5019829;28;20184;-77
2023/09/16 06:41:17;;;;;;;4.78;2.95;;;13.50;92.20;;;;;;5018951;28;21061;-77
2023/09/16 06:43:44;;;;;;;8.48;2.65;;;13.80;92.30;;;;;;4999330;28;20116;-77
2023/09/16 06:46:11;;;;;;;4.38;2.42;;;14.00;90.70;;;;;;5022571;28;20077;-77
2023/09/16 06:48:38;;;;;;;7.38;3.33;;;14.10;90.50;;;;;;5006276;28;20108;-76
2023/09/16 06:51:05;;;;;;;4.65;2.50;;;14.10;90.50;;;;;;5016866;28;20048;-75
2023/09/16 06:53:32;;;;;;;4.82;2.20;;;14.20;88.20;;;;;;5019607;28;20060;-74
2023/09/16 06:55:59;;;;;;;6.47;3.15;;;14.30;89.50;;;;;;5008297;28;20474;-74
2023/09/16 06:58:26;;;;;;;5.68;2.75;;;14.30;86.30;;;;;;5023972;28;20461;-82
2023/09/16 07:00:53;;;;;;;4.97;2.90;;;14.40;88.10;;;;;;5005412;28;20492;-75
2023/09/16 07:03:21;;;;;;;4.15;2.28;;;14.60;89.40;;;;;;5019550;28;20045;-74
2023/09/16 07:05:48;;;;;;;7.63;2.17;;;14.70;85.70;;;;;;5020180;28;20057;-75
2023/09/16 07:08:18;;;;;;;6.95;2.47;;;14.90;84.90;;;;;;5020437;28;20744;-78
2023/09/16 07:10:45;;;;;;;10.75;2.75;;;14.90;84.20;;;;;;5006509;28;20057;-75
2023/09/16 07:13:11;;;;;;;6.38;3.60;;;15.20;85.80;;;;;;5004209;28;20049;-73
2023/09/16 07:15:38;;;;;;;4.82;2.17;;;15.40;87.20;;;;;;5004005;28;20140;-74
2023/09/16 07:18:06;;;;;;;4.88;2.17;;;15.60;85.70;;;;;;5030750;28;20782;-74
2023/09/16 07:20:33;;;;;;;6.88;2.80;;;15.90;84.40;;;;;;5023188;28;20441;-74
2023/09/16 07:22:59;;;;;;;6.85;2.53;;;16.00;84.60;;;;;;5001031;28;20123;-74
2023/09/16 07:25:27;;;;;;;3.58;2.15;;;16.10;81.40;;;;;;5019820;28;20552;-74
2023/09/16 07:27:54;;;;;;;5.38;2.67;;;16.30;83.50;;;;;;5023214;28;20111;-77
2023/09/16 07:30:22;;;;;;;6.38;2.95;;;16.50;85.00;;;;;;5021458;28;20050;-73
2023/09/16 07:32:50;;;;;;;8.50;2.75;;;16.70;80.40;;;;;;5020387;28;20568;-75
2023/09/16 07:35:17;;;;;;;6.50;2.63;;;16.90;79.70;;;;;;5012210;28;20142;-75
2023/09/16 07:37:44;;;;;;;5.85;2.85;;;17.00;81.00;;;;;;5021571;28;20049;-75
2023/09/16 07:40:12;;;;;;;9.25;2.40;;;17.00;79.00;;;;;;5003751;28;20065;-75
2023/09/16 07:42:39;;;;;;;8.30;2.58;;;17.10;80.90;;;;;;5017196;28;20163;-74
2023/09/16 07:45:06;;;;;;;4.95;2.67;;;17.20;80.10;;;;;;5022170;28;20159;-72
2023/09/16 07:47:33;;;;;;;7.53;2.50;;;17.50;80.90;;;;;;5004644;28;20053;-72
2023/09/16 07:50:00;;;;;;;4.85;2.45;;;17.70;78.40;;;;;;5022997;28;20045;-72
2023/09/16 07:52:29;;;;;;;7.80;3.00;;;17.80;78.60;;;;;;5030850;28;20481;-72
2023/09/16 07:54:58;;;;;;;12.05;2.67;;;17.70;79.40;;;;;;5021352;28;20135;-72
2023/09/16 07:57:25;;;;;;;10.55;2.70;;;18.00;78.40;;;;;;5022284;28;20706;-72
2023/09/16 07:59:52;;;;;;;6.97;2.92;;;18.20;76.00;;;;;;5007417;28;20061;-73
2023/09/16 08:02:19;;;;;;;4.05;2.28;;;18.30;76.30;;;;;;5016379;28;20629;-73
2023/09/16 08:04:46;;;;;;;4.47;2.55;;;18.60;77.10;;;;;;5017336;28;20057;-73
2023/09/16 08:07:14;;;;;;;6.63;2.75;;;18.80;74.30;;;;;;5003194;28;20049;-73
2023/09/16 08:09:40;;;;;;;4.65;2.58;;;19.10;74.10;;;;;;5018509;28;20661;-73
2023/09/16 08:12:08;;;;;;;5.38;2.70;;;19.60;75.20;;;;;;5018665;28;20049;-73
2023/09/16 08:14:34;;;;;;;8.85;2.85;;;19.90;70.30;;;;;;5020236;28;20816;-73
2023/09/16 08:17:03;;;;;;;5.18;2.13;;;20.10;71.80;;;;;;5020597;28;20112;-73
2023/09/16 08:19:31;;;;;;;5.60;2.42;;;20.50;71.60;;;;;;5004418;28;20053;-73
2023/09/16 08:21:58;;;;;;;7.38;2.80;;;20.80;71.30;;;;;;5020536;28;20054;-73
2023/09/16 08:24:25;;;;;;;7.50;2.50;;;20.90;71.40;;;;;;5003588;28;20042;-73
2023/09/16 08:26:52;;;;;;;2.88;2.20;;;21.20;71.20;;;;;;5003369;28;20045;-73
2023/09/16 08:29:19;;;;;;;9.98;2.67;;;21.40;70.00;;;;;;4999458;28;20096;-73
2023/09/16 08:31:46;;;;;;;5.68;3.00;;;21.60;67.40;;;;;;5020055;28;20107;-73
2023/09/16 08:34:13;;;;;;;5.70;2.40;;;21.60;68.30;;;;;;5019965;28;20053;-73
2023/09/16 08:36:40;;;;;;;5.82;2.92;;;21.60;70.30;;;;;;5020882;28;20053;-73
2023/09/16 08:39:06;;;;;;;4.80;2.80;;;21.70;68.40;;;;;;5017601;28;20050;-73
2023/09/16 08:41:42;;;;;;;7.07;2.83;;;21.70;68.40;;;;;;5018690;28;20062;-73
2023/09/16 08:44:12;;;;;;;7.85;3.05;;;21.60;68.30;;;;;;4996423;28;20084;-73
2023/09/16 08:46:44;;;;;;;4.57;2.22;;;21.60;68.70;;;;;;5014429;28;20088;-73
2023/09/16 08:49:14;;;;;;;6.40;2.58;;;21.70;69.50;;;;;;5013290;28;20046;-73
2023/09/16 08:51:43;;;;;;;5.30;2.83;;;21.80;66.90;;;;;;5017955;28;20054;-75
2023/09/16 08:54:12;;;;;;;5.03;2.47;;;21.90;70.00;;;;;;5020205;28;20068;-74
2023/09/16 08:56:42;;;;;;;10.23;2.88;;;22.20;70.80;;;;;;5019951;28;20069;-75
2023/09/16 08:59:10;;;;;;;4.95;2.67;;;22.60;67.70;;;;;;5003844;28;20061;-75
2023/09/16 09:01:37;;;;;;;5.50;3.20;;;22.80;67.90;;;;;;5021319;28;20103;-75
2023/09/16 09:04:04;;;;;;;4.13;2.65;;;23.10;68.40;;;;;;5002027;28;20619;-75
2023/09/16 09:06:32;;;;;;;9.38;3.10;;;23.60;66.00;;;;;;5018558;28;20049;-74
2023/09/16 09:09:07;;;;;;;5.95;3.15;;;24.10;65.00;;;;;;5016953;28;20045;-75
2023/09/16 09:11:35;;;;;;;6.40;3.13;;;24.50;65.20;;;;;;5017853;28;20053;-74
2023/09/16 09:14:03;;;;;;;5.18;3.33;;;25.00;63.80;;;;;;5018984;28;20406;-75
2023/09/16 09:16:32;;;;;;;7.13;3.13;;;25.60;61.70;;;;;;5010947;28;20037;-75
2023/09/16 09:19:01;;;;;;;9.52;3.30;;;26.00;60.30;;;;;;5022439;28;20136;-75
2023/09/16 09:21:29;;;;;;;6.35;3.10;;;26.60;59.60;;;;;;5007216;28;20406;-75
2023/09/16 09:23:58;;;;;;;5.68;3.00;;;27.00;58.40;;;;;;5004813;28;20057;-75
2023/09/16 09:26:25;;;;;;;6.35;3.00;;;27.40;57.10;;;;;;5017053;28;20300;-75
2023/09/16 09:28:51;;;;;;;6.35;2.95;;;27.80;54.30;;;;;;5016768;28;20501;-75
2023/09/16 09:31:19;;;;;;;4.32;2.95;;;28.00;55.70;;;;;;5018010;28;20141;-75
2023/09/16 09:33:48;;;;;;;5.32;2.72;;;28.30;55.30;;;;;;5021630;28;20060;-75
2023/09/16 09:36:17;;;;;;;5.85;2.55;;;28.60;55.20;;;;;;5005430;28;20541;-75
2023/09/16 09:38:45;;;;;;;5.22;3.30;;;29.50;53.50;;;;;;5021374;28;20062;-75
2023/09/16 09:41:13;;;;;;;9.63;2.70;;;29.90;51.90;;;;;;5020074;28;20048;-75
2023/09/16 09:43:40;;;;;;;8.73;2.58;;;30.00;50.80;;;;;;5018005;28;20084;-75
2023/09/16 09:46:07;;;;;;;7.32;3.03;;;30.30;51.60;;;;;;5022748;28;20137;-75
2023/09/16 09:48:36;;;;;;;4.40;3.05;;;30.60;51.20;;;;;;5008289;28;20050;-75
2023/09/16 09:51:08;;;;;;;4.25;2.90;;;30.80;50.90;;;;;;5019832;28;20905;-75
2023/09/16 09:53:36;;;;;;;5.05;3.17;;;31.10;49.80;;;;;;5003782;28;20115;-75
2023/09/16 09:56:03;;;;;;;5.97;3.20;;;31.60;49.30;;;;;;5004745;28;20048;-75
2023/09/16 09:58:31;;;;;;;5.22;3.13;;;31.90;49.00;;;;;;5019766;28;20053;-75
2023/09/16 10:00:59;;;;;;;3.75;2.67;;;32.20;48.90;;;;;;5022463;28;20073;-75
2023/09/16 10:03:27;;;;;;;3.67;2.53;;;32.40;46.80;;;;;;4999876;28;20231;-75
2023/09/16 10:05:57;;;;;;;8.63;2.90;;;32.30;47.40;;;;;;5015802;28;20045;-75
2023/09/16 10:08:27;;;;;;;6.85;2.85;;;32.40;47.10;;;;;;5016104;28;20063;-75
2023/09/16 10:10:54;;;;;;;9.52;3.20;;;32.00;46.70;;;;;;5014371;28;20050;-75
2023/09/16 10:13:22;;;;;;;5.97;3.42;;;31.90;49.20;;;;;;5016551;28;20191;-75
2023/09/16 10:15:49;;;;;;;4.20;2.72;;;31.70;47.80;;;;;;5015165;28;20678;-75
2023/09/16 10:18:18;;;;;;;5.72;2.60;;;32.00;47.70;;;;;;5019576;28;20123;-74
2023/09/16 10:20:45;;;;;;;5.50;3.00;;;31.40;48.50;;;;;;5019584;28;20057;-75
2023/09/16 10:23:12;;;;;;;4.65;2.80;;;31.10;48.60;;;;;;5022606;28;20096;-75
2023/09/16 10:25:39;;;;;;;4.43;2.60;;;31.00;48.50;;;;;;5021748;28;20053;-76
2023/09/16 10:28:12;;;;;;;7.10;2.92;;;31.00;50.60;;;;;;5002448;28;20062;-76
2023/09/16 10:30:39;;;;;;;3.00;2.45;;;31.00;49.80;;;;;;5018567;28;20041;-76
2023/09/16 10:33:11;;;;;;;4.00;2.92;;;30.90;49.80;;;;;;5017830;28;20865;-76
2023/09/16 10:35:41;;;;;;;5.60;3.65;;;30.70;50.20;;;;;;5004139;28;20061;-77
2023/09/16 10:38:11;;;;;;;7.55;3.22;;;30.60;49.60;;;;;;5016077;28;20046;-77
2023/09/16 10:40:39;;;;;;;7.78;3.10;;;30.50;50.20;;;;;;5003072;28;20718;-77
2023/09/16 10:43:06;;;;;;;3.92;2.85;;;30.50;50.80;;;;;;5001454;28;20053;-75
2023/09/16 10:45:33;;;;;;;7.20;2.88;;;30.40;49.60;;;;;;5019496;28;20053;-76
2023/09/16 10:48:01;;;;;;;5.20;3.47;;;30.40;48.90;;;;;;5022124;28;20139;-76
2023/09/16 10:50:35;;;;;;;4.22;3.20;;;30.00;49.60;;;;;;5004833;28;20725;-75
2023/09/16 10:53:05;;;;;;;5.67;3.30;;;30.10;51.40;;;;;;5021691;28;20049;-75
2023/09/16 10:55:49;;;;;;;7.20;3.20;;;30.50;50.80;;;;;;5005995;28;20058;-75
2023/09/16 10:58:28;;;;;;;5.55;3.10;;;30.80;50.10;;;;;;5016116;28;20088;-76
2023/09/16 11:00:58;;;;;;;7.50;3.17;;;30.90;49.80;;;;;;5003804;28;20375;-76
2023/09/16 11:03:31;;;;;;;11.23;4.20;;;30.70;50.60;;;;;;5019036;28;20521;-76
2023/09/16 11:06:01;;;;;;;7.95;3.40;;;30.90;48.60;;;;;;5005265;28;20049;-76
2023/09/16 11:08:28;;;;;;;4.82;3.35;;;31.10;48.20;;;;;;5002479;28;20056;-76
2023/09/16 11:10:56;;;;;;;8.18;3.13;;;31.50;46.90;;;;;;5022571;28;20052;-76
2023/09/16 11:13:28;;;;;;;5.35;3.15;;;31.40;48.90;;;;;;5006443;28;20503;-76
2023/09/16 11:15:59;;;;;;;3.90;3.08;;;31.70;47.60;;;;;;5003117;28;20045;-76
2023/09/16 11:18:27;;;;;;;6.57;2.97;;;31.90;48.60;;;;;;5019211;28;20045;-76
2023/09/16 11:20:55;;;;;;;6.97;3.03;;;32.40;46.70;;;;;;5018950;28;20062;-76
2023/09/16 11:23:23;;;;;;;9.52;3.33;;;32.90;46.40;;;;;;5018027;28;20108;-76
2023/09/16 11:25:50;;;;;;;5.30;2.53;;;33.30;45.50;;;;;;4998079;28;20057;-76
2023/09/16 11:28:18;;;;;;;6.53;3.10;;;33.00;46.40;;;;;;5019839;28;20049;-76
2023/09/16 11:30:56;;;;;;;5.05;3.25;;;33.10;45.10;;;;;;5004513;28;20118;-76
2023/09/16 11:33:39;;;;;;;5.57;3.63;;;33.70;44.90;;;;;;4997461;28;20049;-75
2023/09/16 11:36:14;;;;;;;4.18;3.08;;;33.70;44.20;;;;;;5018531;28;20208;-76
2023/09/16 11:38:53;;;;;;;4.00;3.00;;;32.90;46.00;;;;;;5019269;28;20053;-75
2023/09/16 11:41:20;;;;;;;4.30;3.40;;;33.80;44.20;;;;;;5018942;28;20115;-77
2023/09/16 11:43:48;;;;;;;4.38;3.25;;;34.90;44.40;;;;;;5015708;28;20443;-85
2023/09/16 11:46:15;;;;;;;4.65;3.40;;;35.40;43.40;;;;;;5025408;28;20053;-75
2023/09/16 11:48:51;;;;;;;4.88;3.38;;;35.20;43.80;;;;;;5020820;28;20073;-75
2023/09/16 11:51:21;;;;;;;6.95;3.05;;;35.80;42.40;;;;;;4997960;28;20050;-75
2023/09/16 11:53:53;;;;;;;4.18;2.78;;;36.40;42.40;;;;;;5017533;28;20542;-75
2023/09/16 11:56:23;;;;;;;8.82;3.30;;;36.70;41.00;;;;;;5002565;28;20053;-75
2023/09/16 11:58:54;;;;;;;4.85;2.80;;;37.10;40.70;;;;;;5004394;28;20045;-74
2023/09/16 12:01:29;;;;;;;4.45;3.25;;;36.40;42.30;;;;;;5002756;28;20041;-75
2023/09/16 12:03:57;;;;;;;5.82;3.22;;;37.30;41.20;;;;;;5019643;28;20521;-74
2023/09/16 12:06:25;;;;;;;4.85;3.33;;;36.80;40.90;;;;;;5004178;28;20165;-75
2023/09/16 12:08:55;;;;;;;4.85;3.20;;;37.10;40.90;;;;;;5018684;28;20103;-75
2023/09/16 12:11:23;;;;;;;5.40;3.10;;;37.30;38.90;;;;;;5005203;28;20054;-75
2023/09/16 12:13:51;;;;;;;7.85;3.25;;;37.00;40.60;;;;;;4999831;28;20482;-80
2023/09/16 12:16:17;;;;;;;5.10;3.10;;;37.40;40.90;;;;;;5003729;28;20598;-77
2023/09/16 12:18:45;;;;;;;7.38;3.10;;;38.00;39.50;;;;;;5004588;28;20053;-76
2023/09/16 12:21:12;;;;;;;3.10;2.80;;;38.30;39.10;;;;;;5003214;28;20080;-77
2023/09/16 12:23:41;;;;;;;3.67;3.05;;;37.10;39.50;;;;;;5017048;28;20046;-80
2023/09/16 12:26:12;;;;;;;5.05;3.00;;;36.60;41.20;;;;;;5005757;28;20111;-76
2023/09/16 12:28:39;;;;;;;4.35;3.10;;;36.50;39.80;;;;;;5022860;28;20057;-77
2023/09/16 12:31:11;;;;;;;3.58;2.67;;;36.60;40.30;;;;;;5019694;28;20131;-76
2023/09/16 12:33:46;;;;;;;5.97;3.22;;;37.50;40.30;;;;;;5026053;28;20795;-76
2023/09/16 12:36:23;;;;;;;3.40;2.95;;;38.30;39.60;;;;;;5024976;28;20052;-75
2023/09/16 12:38:53;;;;;;;5.18;3.33;;;38.10;38.40;;;;;;5008965;28;20124;-78
2023/09/16 12:41:21;;;;;;;5.75;2.90;;;37.30;40.10;;;;;;5021640;28;20057;-85
2023/09/16 12:43:49;;;;;;;4.20;3.15;;;37.90;39.60;;;;;;5010839;28;20610;-74
2023/09/16 12:46:20;;;;;;;3.28;2.92;;;38.50;39.10;;;;;;5020898;28;20053;-74
2023/09/16 12:48:49;;;;;;;7.25;3.35;;;39.20;39.00;;;;;;5029682;28;20045;-74
2023/09/16 12:51:21;;;;;;;4.32;2.90;;;38.20;38.20;;;;;;5021335;28;20068;-74
2023/09/16 12:53:52;;;;;;;3.80;3.03;;;37.30;39.90;;;;;;5022561;28;20142;-73